Home > Products > Valid Products > MTR

000
SAUS42 KCHS 261105
MTRNBC
SPECI KNBC 261104Z AUTO 07003KT 10SM CLR 22/22 A3025 RMK AO2
T02220217





000
SAUS42 KCHS 261058
MTRNBC
METAR KNBC 261056Z AUTO 07003KT 2SM BR CLR 22/21 A3025 RMK AO2
SLP242 T02170211





000
SAUS42 KCHS 260958
MTRNBC
METAR KNBC 260956Z AUTO 00000KT 10SM BKN040 22/22 A3022 RMK AO2
SLP235 T02220217





000
SAUS42 KCHS 260903
MTRNBC
SPECI KNBC 260902Z AUTO 00000KT 3SM BR FEW008 SCT041 22/21 A3022 RMK
AO2 T02170206





000
SAUS42 KCHS 260857
MTRNBC
METAR KNBC 260856Z AUTO 00000KT 1 3/4SM BR FEW008 SCT041 22/21 A3022
RMK AO2 VIS 3/4V5 SLP232 T02170206 55004





000
SAUS42 KCHS 260757
MTRNBC
METAR KNBC 260756Z AUTO 00000KT 10SM CLR 23/22 A3021 RMK AO2 SLP231
T02280217





000
SAUS42 KCHS 260657
MTRNBC
METAR KNBC 260656Z AUTO 11004KT 10SM CLR 23/22 A3022 RMK AO2 SLP233
T02280217





000
SAUS42 KCHS 260557
MTRNBC
METAR KNBC 260556Z AUTO 11005KT 10SM CLR 23/22 A3023 RMK AO2 SLP237
T02330217 10250 20228 58010





000
SAUS42 KCHS 260457
MTRNBC
METAR KNBC 260456Z AUTO 12003KT 10SM CLR 23/21 A3025 RMK AO2 SLP242
T02280211 402780228





000
SAUS42 KCHS 260357
MTRNBC
METAR KNBC 260356Z AUTO 12006KT 10SM CLR 23/21 A3025 RMK AO2 SLP245
T02330211





000
SAUS42 KCHS 260257
MTRNBC
METAR KNBC 260256Z AUTO 11006KT 10SM FEW020 23/21 A3026 RMK AO2
SLP247 T02330211 53005





000
SAUS42 KCHS 260157
MTRNBC
METAR KNBC 260156Z AUTO 10006KT 10SM CLR 23/21 A3025 RMK AO2 SLP243
T02330211





000
SAUS42 KCHS 260058
MTRNBC
METAR KNBC 260056Z AUTO 10007KT 10SM CLR 24/21 A3024 RMK AO2 SLP240
T02390211





000
SAUS42 KCHS 252357
MTRNBC
METAR KNBC 252356Z AUTO 10008KT 10SM CLR 25/21 A3024 RMK AO2 SLP241
T02500211 10278 20250 55000





000
SAUS42 KCHS 252257
MTRNBC
METAR KNBC 252256Z AUTO 11009KT 10SM FEW021 26/21 A3024 RMK AO2
SLP241 T02560211





000
SAUS42 KCHS 252257
MTRNBC
METAR KNBC 252256Z AUTO 11009KT 10SM FEW021 26/21 A3024 RMK AO2
SLP241 T02560211





000
SAUS42 KCHS 252157
MTRNBC
METAR KNBC 252156Z AUTO 10014KT 10SM CLR 27/21 A3024 RMK AO2 SLP241
T02720211





000
SAUS42 KCHS 252057
MTRNBC
METAR KNBC 252056Z AUTO 10014KT 10SM CLR 27/21 A3024 RMK AO2 SLP242
T02720206 58014





000
SAUS42 KCHS 251957
MTRNBC
METAR KNBC 251956Z AUTO 10011KT 10SM FEW025 FEW035 SCT055 28/21
A3026 RMK AO2 SLP247 T02780206





000
SAUS42 KCHS 251857
MTRNBC
METAR KNBC 251856Z AUTO 11012KT 10SM BKN042 OVC060 27/20 A3027 RMK
AO2 SLP251 T02720200





000
SAUS42 KCHS 251857
MTRNBC
METAR KNBC 251856Z AUTO 11012KT 10SM BKN042 OVC060 27/20 A3027 RMK
AO2 SLP251 T02720200





000
SAUS42 KCHS 251757
MTRNBC
METAR KNBC 251756Z AUTO 09008KT 10SM OVC040 27/19 A3028 RMK AO2
SLP255 T02670194 10267 20244 58007





000
SAUS42 KCHS 251657
MTRNBC
METAR KNBC 251656Z AUTO 10009KT 10SM BKN036 OVC046 26/19 A3030 RMK
AO2 SLP259 T02610194





000
SAUS42 KCHS 251657
MTRNBC
METAR KNBC 251656Z AUTO 10009KT 10SM BKN036 OVC046 26/19 A3030 RMK
AO2 SLP259 T02610194





000
SAUS42 KCHS 251617
MTRNBC
SPECI KNBC 251616Z AUTO 12006KT 10SM SCT026 BKN034 OVC047 26/20
A3030 RMK AO2 T02610200





000
SAUS42 KCHS 251617
MTRNBC
SPECI KNBC 251616Z AUTO 12006KT 10SM SCT026 BKN034 OVC047 26/20
A3030 RMK AO2 T02610200





000
SAUS42 KCHS 251557
MTRNBC
METAR KNBC 251556Z AUTO 11009KT 10SM BKN025 BKN035 OVC047 26/20
A3030 RMK AO2 SLP260 T02610200





000
SAUS42 KCHS 251457
MTRNBC
METAR KNBC 251456Z AUTO 11007KT 10SM BKN025 BKN031 OVC050 26/20
A3031 RMK AO2 SLP262 T02560200 51009





000
SAUS42 KCHS 251457
MTRNBC
METAR KNBC 251456Z AUTO 11007KT 10SM BKN025 BKN031 OVC050 26/20
A3031 RMK AO2 SLP262 T02560200 51009





000
SAUS42 KCHS 251450
MTRNBC
SPECI KNBC 251449Z AUTO 12007KT 10SM BKN027 BKN040 OVC050 26/20
A3031 RMK AO2 T02560200





000
SAUS42 KCHS 251426
MTRNBC
SPECI KNBC 251425Z AUTO 11009G14KT 10SM FEW030 OVC055 27/20 A3030
RMK AO2 T02670200





000
SAUS42 KCHS 251358
MTRNBC
METAR KNBC 251356Z AUTO 10008KT 10SM OVC029 26/19 A3030 RMK AO2
SLP262 T02560194





000
SAUS42 KCHS 251339
MTRNBC
SPECI KNBC 251338Z AUTO 11009KT 10SM BKN029 OVC050 25/19 A3030 RMK
AO2 T02500194





000
SAUS42 KCHS 251339
MTRNBC
SPECI KNBC 251338Z AUTO 11009KT 10SM BKN029 OVC050 25/19 A3030 RMK
AO2 T02500194





000
SAUS42 KCHS 251257
MTRNBC
METAR KNBC 251256Z AUTO 10010KT 10SM FEW024 OVC050 26/19 A3029 RMK
AO2 SLP259 T02560194





000
SAUS42 KCHS 251157
MTRNBC
METAR KNBC 251156Z AUTO 09005KT 10SM BKN060 24/19 A3028 RMK AO2
SLP253 T02440189 10244 20233 53006





000
SAUS42 KCHS 251157
MTRNBC
METAR KNBC 251156Z AUTO 09005KT 10SM BKN060 24/19 A3028 RMK AO2
SLP253 T02440189 10244 20233 53006





000
SAUS42 KCHS 251057
MTRNBC
METAR KNBC 251056Z AUTO 09005KT 10SM SCT055 BKN100 23/18 A3027 RMK
AO2 SLP249 T02330183





000
SAUS42 KCHS 251057
MTRNBC
METAR KNBC 251056Z AUTO 09005KT 10SM SCT055 BKN100 23/18 A3027 RMK
AO2 SLP249 T02330183





000
SAUS42 KCHS 250957
MTRNBC
METAR KNBC 250956Z AUTO 10006KT 10SM OVC060 23/18 A3026 RMK AO2
SLP246 T02330183





000
SAUS42 KCHS 250857
MTRNBC
METAR KNBC 250856Z AUTO 11008KT 10SM BKN065 23/18 A3026 RMK AO2
SLP246 T02330183 56004





000
SAUS42 KCHS 250857
MTRNBC
METAR KNBC 250856Z AUTO 11008KT 10SM BKN065 23/18 A3026 RMK AO2
SLP246 T02330183 56004





000
SAUS42 KCHS 250757
MTRNBC
METAR KNBC 250756Z AUTO 11006KT 10SM OVC060 24/18 A3026 RMK AO2
SLP248 T02390183





000
SAUS42 KCHS 250757
MTRNBC
METAR KNBC 250756Z AUTO 11006KT 10SM OVC060 24/18 A3026 RMK AO2
SLP248 T02390183





000
SAUS42 KCHS 250657
MTRNBC
METAR KNBC 250656Z AUTO 11006KT 10SM OVC055 24/18 A3026 RMK AO2
SLP248 T02390183





000
SAUS42 KCHS 250657
MTRNBC
METAR KNBC 250656Z AUTO 11006KT 10SM OVC055 24/18 A3026 RMK AO2
SLP248 T02390183





000
SAUS42 KCHS 250557
MTRNBC
METAR KNBC 250556Z AUTO 11006KT 10SM OVC055 23/18 A3027 RMK AO2
SLP250 T02330183 10244 20222 58008





000
SAUS42 KCHS 250557
MTRNBC
METAR KNBC 250556Z AUTO 11006KT 10SM OVC055 23/18 A3027 RMK AO2
SLP250 T02330183 10244 20222 58008





000
SAUS42 KCHS 250458
MTRNBC
METAR KNBC 250456Z AUTO 11006KT 10SM CLR 23/18 A3029 RMK AO2 SLP256
T02280183 402720189





000
SAUS42 KCHS 250357
MTRNBC
METAR KNBC 250356Z AUTO 12006KT 10SM CLR 23/18 A3029 RMK AO2 SLP258
T02280183





000
SAUS42 KCHS 250257
MTRNBC
METAR KNBC 250256Z AUTO 10007KT 10SM SCT029 23/18 A3030 RMK AO2
SLP259 T02330178 51001





000
SAUS42 KCHS 250158
MTRNBC
METAR KNBC 250156Z AUTO 10007KT 10SM FEW060 23/17 A3029 RMK AO2
SLP258 T02280167





000
SAUS42 KCHS 250058
MTRNBC
METAR KNBC 250056Z AUTO 10010KT 10SM BKN060 23/17 A3029 RMK AO2
SLP258 T02330172





000
SAUS42 KCHS 250058
MTRNBC
METAR KNBC 250056Z AUTO 10010KT 10SM BKN060 23/17 A3029 RMK AO2
SLP258 T02330172





000
SAUS42 KCHS 242357
MTRNBC
METAR KNBC 242356Z AUTO 10011KT 10SM BKN060 24/17 A3029 RMK AO2
SLP258 T02390167 10272 20239 53002





000
SAUS42 KCHS 242357
MTRNBC
METAR KNBC 242356Z AUTO 10011KT 10SM BKN060 24/17 A3029 RMK AO2
SLP258 T02390167 10272 20239 53002





000
SAUS42 KCHS 242257
MTRNBC
METAR KNBC 242256Z AUTO 09010G20KT 10SM BKN055 25/17 A3029 RMK AO2
SLP256 T02500172





000
SAUS42 KCHS 242257
MTRNBC
METAR KNBC 242256Z AUTO 09010G20KT 10SM BKN055 25/17 A3029 RMK AO2
SLP256 T02500172





000
SAUS42 KCHS 242157
MTRNBC
METAR KNBC 242156Z AUTO 10011G18KT 10SM BKN050 26/17 A3029 RMK AO2
SLP256 T02560172





000
SAUS42 KCHS 242057
MTRNBC
METAR KNBC 242056Z AUTO 10013G18KT 10SM FEW041 BKN050 27/17 A3029
RMK AO2 SLP256 T02670172 58018





000
SAUS42 KCHS 241958
MTRNBC
METAR KNBC 241956Z AUTO 11014G19KT 10SM BKN047 26/17 A3031 RMK AO2
SLP262 T02610167





000
SAUS42 KCHS 241958
MTRNBC
METAR KNBC 241956Z AUTO 11014G19KT 10SM BKN047 26/17 A3031 RMK AO2
SLP262 T02610167





000
SAUS42 KCHS 241858
MTRNBC
METAR KNBC 241856Z AUTO 09009KT 10SM BKN042 27/16 A3033 RMK AO2
SLP270 T02670161





000
SAUS42 KCHS 241757
MTRNBC
METAR KNBC 241756Z AUTO 08008G17KT 10SM BKN045 BKN055 27/16 A3034
RMK AO2 SLP273 T02720161 10272 20217 58007





000
SAUS42 KCHS 241757
MTRNBC
METAR KNBC 241756Z AUTO 08008G17KT 10SM BKN045 BKN055 27/16 A3034
RMK AO2 SLP273 T02720161 10272 20217 58007





000
SAUS42 KCHS 241658
MTRNBC
METAR KNBC 241656Z AUTO 10009KT 10SM BKN045 26/16 A3035 RMK AO2
SLP277 T02560156





000
SAUS42 KCHS 241658
MTRNBC
METAR KNBC 241656Z AUTO 10009KT 10SM BKN045 26/16 A3035 RMK AO2
SLP277 T02560156





000
SAUS42 KCHS 241557
MTRNBC
METAR KNBC 241556Z AUTO 07010KT 10SM BKN045 26/15 A3035 RMK AO2
SLP278 T02560150





000
SAUS42 KCHS 241458
MTRNBC
METAR KNBC 241456Z AUTO 11011KT 10SM SCT045 26/16 A3036 RMK AO2
SLP280 T02610161 53004





000
SAUS42 KCHS 241458
MTRNBC
METAR KNBC 241456Z AUTO 11011KT 10SM SCT045 26/16 A3036 RMK AO2
SLP280 T02610161 53004





000
SAUS42 KCHS 241357
MTRNBC
METAR KNBC 241356Z AUTO 11013KT 10SM SCT041 26/16 A3035 RMK AO2
SLP278 T02560161





000
SAUS42 KCHS 241257
MTRNBC
METAR KNBC 241256Z AUTO 07005KT 10SM FEW038 24/17 A3035 RMK AO2
SLP276 T02440172





000
SAUS42 KCHS 241157
MTRNBC
METAR KNBC 241156Z AUTO 04005KT 10SM CLR 22/17 A3035 RMK AO2 SLP276
T02170172 10233 20189 52010





000
SAUS42 KCHS 241057
MTRNBC
METAR KNBC 241056Z AUTO 36004KT 10SM CLR 19/17 A3034 RMK AO2 SLP274
T01940167





000
SAUS42 KCHS 240957
MTRNBC
METAR KNBC 240956Z AUTO 09003KT 10SM CLR 21/16 A3032 RMK AO2 SLP268
T02110161





000
SAUS42 KCHS 240857
MTRNBC
METAR KNBC 240856Z AUTO 10005KT 10SM CLR 22/16 A3032 RMK AO2 SLP266
T02170161 53002





000
SAUS42 KCHS 240757
MTRNBC
METAR KNBC 240756Z AUTO 11007KT 10SM CLR 23/16 A3030 RMK AO2 SLP261
T02280161





000
SAUS42 KCHS 240657
MTRNBC
METAR KNBC 240656Z AUTO 12006KT 10SM CLR 23/16 A3030 RMK AO2 SLP260
T02280161





000
SAUS42 KCHS 240557
MTRNBC
METAR KNBC 240556Z AUTO 12005KT 10SM CLR 23/17 A3031 RMK AO2 SLP264
T02330167 10233 20228 58009





000
SAUS42 KCHS 240557
MTRNBC
METAR KNBC 240556Z AUTO 12005KT 10SM CLR 23/17 A3031 RMK AO2 SLP264
T02330167 10233 20228 58009





000
SAUS42 KCHS 240457
MTRNBC
METAR KNBC 240456Z AUTO 11006KT 10SM FEW038 23/17 A3033 RMK AO2
SLP271 T02280167 402670167





000
SAUS42 KCHS 240357
MTRNBC
METAR KNBC 240356Z AUTO 10006KT 10SM FEW060 23/16 A3034 RMK AO2
SLP272 T02280161





000
SAUS42 KCHS 240258
MTRNBC
METAR KNBC 240256Z AUTO 10006KT 10SM OVC050 23/17 A3034 RMK AO2
SLP274 T02280167 53005





000
SAUS42 KCHS 240258
MTRNBC
METAR KNBC 240256Z AUTO 10006KT 10SM OVC050 23/17 A3034 RMK AO2
SLP274 T02280167 53005





000
SAUS42 KCHS 240157
MTRNBC
METAR KNBC 240156Z AUTO 08008KT 10SM BKN050 23/16 A3033 RMK AO2
SLP271 T02280156





000
SAUS42 KCHS 240157
MTRNBC
METAR KNBC 240156Z AUTO 08008KT 10SM BKN050 23/16 A3033 RMK AO2
SLP271 T02280156





000
SAUS42 KCHS 240057
MTRNBC
METAR KNBC 240056Z AUTO 09008KT 10SM CLR 23/17 A3032 RMK AO2 SLP268
T02280167





000
SAUS42 KCHS 240057
MTRNBC
METAR KNBC 240056Z AUTO 09008KT 10SM CLR 23/17 A3032 RMK AO2 SLP268
T02280167





000
SAUS42 KCHS 232357
MTRNBC
METAR KNBC 232356Z AUTO 10010KT 10SM CLR 23/16 A3032 RMK AO2 SLP269
T02330161 10267 20233 58002





000
SAUS42 KCHS 232357
MTRNBC
METAR KNBC 232356Z AUTO 10010KT 10SM CLR 23/16 A3032 RMK AO2 SLP269
T02330161 10267 20233 58002





000
SAUS42 KCHS 232257
MTRNBC
METAR KNBC 232256Z AUTO 11012G18KT 10SM BKN049 24/16 A3033 RMK AO2
SLP270 T02440161





000
SAUS42 KCHS 232257
MTRNBC
METAR KNBC 232256Z AUTO 11012G18KT 10SM BKN049 24/16 A3033 RMK AO2
SLP270 T02440161





000
SAUS42 KCHS 232157
MTRNBC
METAR KNBC 232156Z AUTO 11011G17KT 10SM BKN044 BKN060 26/17 A3033
RMK AO2 SLP270 T02560167





000
SAUS42 KCHS 232157
MTRNBC
METAR KNBC 232156Z AUTO 11011G17KT 10SM BKN044 BKN060 26/17 A3033
RMK AO2 SLP270 T02560167





000
SAUS42 KCHS 232057
MTRNBC
METAR KNBC 232056Z AUTO 12010G17KT 10SM FEW060 26/17 A3033 RMK AO2
SLP271 T02610167 56010





000
SAUS42 KCHS 231958
MTRNBC
METAR KNBC 231956Z AUTO 11012G18KT 10SM CLR 26/16 A3034 RMK AO2
SLP274 T02610156





000
SAUS42 KCHS 231958
MTRNBC
METAR KNBC 231956Z AUTO 11012G18KT 10SM CLR 26/16 A3034 RMK AO2
SLP274 T02610156





000
SAUS42 KCHS 231858
MTRNBC
METAR KNBC 231856Z AUTO 10013G18KT 10SM FEW055 26/15 A3035 RMK AO2
SLP277 T02610150





000
SAUS42 KCHS 231858
MTRNBC
METAR KNBC 231856Z AUTO 10013G18KT 10SM FEW055 26/15 A3035 RMK AO2
SLP277 T02610150





000
SAUS42 KCHS 231757
MTRNBC
METAR KNBC 231756Z AUTO 11011G20KT 10SM CLR 27/16 A3036 RMK AO2
SLP281 T02670161 10267 20194 58004





000
SAUS42 KCHS 231658
MTRNBC
METAR KNBC 231656Z AUTO 07009KT 10SM FEW045 26/14 A3037 RMK AO2
SLP283 T02560139





000
SAUS42 KCHS 231658
MTRNBC
METAR KNBC 231656Z AUTO 07009KT 10SM FEW045 26/14 A3037 RMK AO2
SLP283 T02560139





000
SAUS42 KCHS 231557
MTRNBC
METAR KNBC 231556Z AUTO 10009KT 10SM CLR 26/13 A3037 RMK AO2 SLP285
T02560128





000
SAUS42 KCHS 231457
MTRNBC
METAR KNBC 231456Z AUTO 06010KT 10SM CLR 25/13 A3037 RMK AO2 SLP284
T02500133 51012





000
SAUS42 KCHS 231357
MTRNBC
METAR KNBC 231356Z AUTO 07008G17KT 10SM CLR 24/14 A3037 RMK AO2
SLP283 T02390139





000
SAUS42 KCHS 231257
MTRNBC
METAR KNBC 231256Z AUTO 05007KT 10SM CLR 22/15 A3036 RMK AO2 SLP281
T02220150





000
SAUS42 KCHS 231257
MTRNBC
METAR KNBC 231256Z AUTO 05007KT 10SM CLR 22/15 A3036 RMK AO2 SLP281
T02220150





    US Dept of Commerce
    National Oceanic and Atmospheric Administration
    National Weather Service
    1325 East West Highway
    Silver Spring, MD 20910
    Page Author: NWS Internet Services Team
Disclaimer
Information Quality
Credits
Glossary
Privacy Policy
Freedom of Information Act (FOIA)
About Us
Career Opportunities